Time;durP1;ratioP1;P1;durP2;ratioP2;P2;SDS_P1;SDS_P2;PMS_P1;PMS_P2;Temp;Humidity;BMP_temperature;BMP_pressure;BME280_temperature;BME280_humidity;BME280_pressure;Samples;Min_cycle;Max_cycle;Signal;HPM_P1;HPM_P2
2021/12/23 00:00:48;;;;;;;19.05;8.85;;;;;;;-7.42;100.00;98964.59;4151396;28;20052;-71
2021/12/23 00:02:49;;;;;;;24.27;10.65;;;;;;;-7.30;100.00;98957.19;4151787;28;20103;-71
2021/12/23 00:04:49;;;;;;;19.90;9.18;;;;;;;-7.30;100.00;98954.50;4151784;28;20418;-71
2021/12/23 00:06:49;;;;;;;19.90;9.35;;;;;;;-7.34;100.00;98963.34;4151976;28;20838;-71
2021/12/23 00:08:50;;;;;;;22.52;10.73;;;;;;;-7.38;100.00;98958.44;4151911;28;20037;-71
2021/12/23 00:10:50;;;;;;;20.33;10.10;;;;;;;-7.44;100.00;98950.59;4150646;28;20048;-71
2021/12/23 00:12:50;;;;;;;22.05;10.32;;;;;;;-7.44;100.00;98947.91;4151264;28;20045;-71
2021/12/23 00:14:51;;;;;;;21.05;9.60;;;;;;;-7.45;100.00;98938.19;4151268;28;20602;-71
2021/12/23 00:17:17;;;;;;;19.23;9.52;;;;;;;-7.43;100.00;98942.28;4150083;28;20045;-71
2021/12/23 00:19:37;;;;;;;21.10;10.55;;;;;;;-7.46;100.00;98932.00;4149488;28;20240;-71
2021/12/23 00:23:57;;;;;;;17.88;9.73;;;;;;;-7.46;100.00;98932.00;4150705;28;20312;-71
2021/12/23 00:26:01;;;;;;;20.52;10.73;;;;;;;-7.43;100.00;98925.34;4152119;28;20077;-71
2021/12/23 00:28:02;;;;;;;18.60;9.60;;;;;;;-7.38;100.00;98920.81;4150145;28;20057;-72
2021/12/23 00:30:03;;;;;;;20.23;11.23;;;;;;;-7.34;100.00;98920.31;4150887;28;20231;-71
2021/12/23 00:32:07;;;;;;;18.48;9.85;;;;;;;-7.37;100.00;98908.19;4152794;28;20025;-72
2021/12/23 00:34:09;;;;;;;20.83;10.52;;;;;;;-7.42;100.00;98906.25;4153629;28;20045;-71
2021/12/23 00:36:11;;;;;;;;;;;;;;;-7.46;100.00;98901.63;4155545;28;20484;-71
2021/12/23 00:38:19;;;;;;;17.25;9.07;;;;;;;-7.49;100.00;98896.75;4153852;28;19956;-71
2021/12/23 00:40:19;;;;;;;18.00;9.73;;;;;;;-7.53;100.00;98893.78;4153540;28;20036;-71
2021/12/23 00:42:20;;;;;;;19.52;10.45;;;;;;;-7.54;100.00;98897.50;4153433;28;20044;-71
2021/12/23 00:44:20;;;;;;;18.52;9.77;;;;;;;-7.55;100.00;98898.56;4155076;28;20045;-71
2021/12/23 00:46:21;;;;;;;18.08;9.85;;;;;;;-7.54;100.00;98894.00;4154528;28;20049;-71
2021/12/23 00:48:21;;;;;;;19.58;10.05;;;;;;;-7.53;100.00;98891.09;4153894;28;20475;-71
2021/12/23 00:50:22;;;;;;;23.40;11.23;;;;;;;-7.47;100.00;98895.44;4153828;28;20132;-71
2021/12/23 00:52:30;;;;;;;19.73;10.18;;;;;;;-7.45;100.00;98911.31;4155401;28;20048;-71
2021/12/23 00:54:30;;;;;;;19.63;9.75;;;;;;;-7.46;100.00;98886.31;4153884;28;20076;-71
2021/12/23 00:56:32;;;;;;;23.08;10.27;;;;;;;-7.35;100.00;98887.25;4154536;28;20037;-71
2021/12/23 00:58:33;;;;;;;21.50;11.93;;;;;;;-7.30;100.00;98879.22;4154271;28;20041;-71
2021/12/23 01:00:33;;;;;;;19.15;9.60;;;;;;;-7.31;100.00;98876.81;4153750;28;20071;-71
2021/12/23 01:02:34;;;;;;;24.02;11.18;;;;;;;-7.34;100.00;98883.50;4154676;28;20136;-71
2021/12/23 01:04:34;;;;;;;24.48;11.18;;;;;;;-7.37;100.00;98889.38;4154396;28;20057;-71
2021/12/23 01:06:35;;;;;;;21.73;11.35;;;;;;;-7.38;100.00;98882.38;4152694;28;20483;-71
2021/12/23 01:08:35;;;;;;;21.88;10.75;;;;;;;-7.35;100.00;98892.63;4153890;28;20046;-71
2021/12/23 01:10:36;;;;;;;23.63;11.63;;;;;;;-7.36;100.00;98891.81;4154163;28;20042;-71
2021/12/23 01:12:47;;;;;;;22.40;11.07;;;;;;;-7.35;100.00;98887.25;4153561;28;20041;-71
2021/12/23 01:14:57;;;;;;;21.58;10.57;;;;;;;-7.34;100.00;98890.75;4153596;28;20046;-72
2021/12/23 01:18:59;;;;;;;20.73;10.55;;;;;;;-7.30;100.00;98881.09;4150284;28;20092;-71
2021/12/23 01:21:04;;;;;;;27.83;11.57;;;;;;;-7.29;100.00;98886.22;4153729;28;20041;-71
2021/12/23 01:23:07;;;;;;;27.27;12.05;;;;;;;-7.29;100.00;98870.09;4151733;28;20387;-71
2021/12/23 01:25:08;;;;;;;21.67;10.68;;;;;;;-7.20;100.00;98860.53;4152602;28;20312;-71
2021/12/23 01:27:09;;;;;;;21.65;10.43;;;;;;;-7.13;100.00;98869.19;4151407;28;20049;-71
2021/12/23 01:29:09;;;;;;;24.05;10.77;;;;;;;-7.08;100.00;98866.56;4154312;28;20056;-71
2021/12/23 01:31:09;;;;;;;21.83;11.50;;;;;;;-7.07;100.00;98862.81;4152646;28;20069;-71
2021/12/23 01:33:10;;;;;;;22.05;10.15;;;;;;;-7.08;100.00;98863.06;4154748;28;20062;-71
2021/12/23 01:35:11;;;;;;;21.92;10.02;;;;;;;-7.07;100.00;98853.94;4154006;28;20050;-72
2021/12/23 01:37:12;;;;;;;22.23;10.95;;;;;;;-7.01;100.00;98855.59;4153910;28;20056;-71
2021/12/23 01:39:14;;;;;;;20.13;10.85;;;;;;;-6.98;100.00;98847.03;4153503;28;20037;-72
2021/12/23 01:41:14;;;;;;;21.08;11.35;;;;;;;-6.94;100.00;98844.66;4151595;28;20046;-72
2021/12/23 01:43:17;;;;;;;21.70;11.13;;;;;;;-6.95;100.00;98846.53;4153631;28;20113;-71
2021/12/23 01:45:28;;;;;;;20.20;10.60;;;;;;;-7.01;100.00;98850.22;4152811;28;20136;-71
2021/12/23 01:47:29;;;;;;;22.65;11.80;;;;;;;-6.99;100.00;98856.16;4153979;28;20057;-71
2021/12/23 01:49:29;;;;;;;25.23;11.10;;;;;;;-7.02;100.00;98848.59;4153015;28;20046;-71
2021/12/23 01:51:30;;;;;;;20.70;10.80;;;;;;;-7.04;100.00;98842.66;4154096;28;20149;-70
2021/12/23 01:53:30;;;;;;;20.55;9.93;;;;;;;-7.02;100.00;98826.28;4152652;28;20927;-71
2021/12/23 01:55:31;;;;;;;23.55;11.77;;;;;;;-6.97;100.00;98829.00;4153539;28;20053;-72
2021/12/23 01:57:32;;;;;;;20.95;10.85;;;;;;;-6.95;100.00;98826.84;4153723;28;20521;-71
2021/12/23 01:59:33;;;;;;;19.40;11.10;;;;;;;-7.01;100.00;98825.22;4153886;28;20045;-72
2021/12/23 02:01:33;;;;;;;25.35;11.50;;;;;;;-7.08;100.00;98831.59;4153705;28;20528;-71
2021/12/23 02:03:34;;;;;;;18.35;9.50;;;;;;;-7.04;100.00;98813.06;4153115;28;20134;-71
2021/12/23 02:05:34;;;;;;;20.42;10.60;;;;;;;-7.02;100.00;98812.84;4152930;28;20044;-71
2021/12/23 02:07:35;;;;;;;21.92;11.35;;;;;;;-6.97;100.00;98804.78;4151609;28;20614;-71
2021/12/23 02:09:36;;;;;;;25.42;11.15;;;;;;;-6.90;100.00;98798.13;4153333;28;20041;-71
2021/12/23 02:11:37;;;;;;;18.15;10.48;;;;;;;-6.92;100.00;98783.31;4154366;28;20424;-71
2021/12/23 02:13:39;;;;;;;22.33;10.77;;;;;;;-6.92;100.00;98770.69;4152954;28;20045;-71
2021/12/23 02:15:39;;;;;;;19.60;9.90;;;;;;;-6.88;100.00;98766.41;4153365;28;20299;-71
2021/12/23 02:17:41;;;;;;;15.52;8.98;;;;;;;-6.97;100.00;98754.50;4151204;28;20041;-71
2021/12/23 02:19:41;;;;;;;21.58;9.68;;;;;;;-6.97;100.00;98756.38;4152716;28;20041;-71
2021/12/23 02:21:43;;;;;;;19.17;10.38;;;;;;;-6.95;100.00;98738.09;4152870;28;20054;-71
2021/12/23 02:23:43;;;;;;;17.30;9.13;;;;;;;-6.90;100.00;98743.53;4153408;28;20046;-71
2021/12/23 02:25:44;;;;;;;20.70;10.30;;;;;;;-6.92;100.00;98741.09;4152846;28;20050;-71
2021/12/23 02:27:45;;;;;;;19.77;11.02;;;;;;;-6.91;100.00;98717.69;4152013;28;20132;-71
2021/12/23 02:29:46;;;;;;;17.83;9.43;;;;;;;-6.93;100.00;98735.97;4151947;28;20049;-71
2021/12/23 02:31:51;;;;;;;19.45;10.20;;;;;;;-7.02;100.00;98741.03;4153733;28;20060;-71
2021/12/23 02:33:52;;;;;;;21.10;10.32;;;;;;;-7.11;100.00;98745.25;4151256;28;20049;-71
2021/12/23 02:35:54;;;;;;;19.90;9.95;;;;;;;-7.15;100.00;98749.50;4152731;28;20459;-71
2021/12/23 02:37:55;;;;;;;16.13;8.95;;;;;;;-7.20;100.00;98738.69;4152837;28;20041;-71
2021/12/23 02:39:56;;;;;;;17.92;10.18;;;;;;;-7.24;100.00;98741.09;4152292;28;20077;-71
2021/12/23 02:41:57;;;;;;;17.08;10.13;;;;;;;-7.28;100.00;98729.25;4152954;28;20053;-71
2021/12/23 02:43:57;;;;;;;21.55;11.30;;;;;;;-7.31;100.00;98726.25;4153443;28;20065;-71
2021/12/23 02:45:59;;;;;;;18.40;9.98;;;;;;;-7.32;100.00;98727.31;4152487;28;20140;-71
2021/12/23 02:48:00;;;;;;;17.17;9.05;;;;;;;-7.27;100.00;98724.69;4150567;28;20045;-71
2021/12/23 02:50:01;;;;;;;19.80;10.80;;;;;;;-7.27;100.00;98717.44;4152082;28;20298;-71
2021/12/23 02:52:01;;;;;;;15.70;9.32;;;;;;;-7.28;100.00;98713.13;4152606;28;20029;-71
2021/12/23 02:54:02;;;;;;;19.38;9.35;;;;;;;-7.25;100.00;98711.78;4152621;28;20025;-71
2021/12/23 02:56:05;;;;;;;20.08;9.90;;;;;;;-7.23;100.00;98699.69;4151898;28;20438;-71
2021/12/23 02:58:06;;;;;;;14.90;8.27;;;;;;;-7.23;100.00;98704.28;4152696;28;20045;-71
2021/12/23 03:00:08;;;;;;;18.25;9.60;;;;;;;-7.19;100.00;98705.41;4150984;28;20490;-71
2021/12/23 03:02:08;;;;;;;17.52;9.50;;;;;;;-7.18;100.00;98693.56;4151788;28;20099;-71
2021/12/23 03:04:09;;;;;;;18.08;9.82;;;;;;;-7.18;100.00;98688.19;4151279;28;20081;-71
2021/12/23 03:06:11;;;;;;;17.65;9.90;;;;;;;-7.19;100.00;98687.38;4152160;28;20099;-71
2021/12/23 03:08:11;;;;;;;21.10;9.85;;;;;;;-7.19;100.00;98691.94;4151705;28;20142;-71
2021/12/23 03:10:11;;;;;;;18.77;9.73;;;;;;;-7.13;100.00;98675.56;4150587;28;20068;-71
2021/12/23 03:12:12;;;;;;;17.40;8.93;;;;;;;-7.12;100.00;98661.06;4151914;28;20301;-72
2021/12/23 03:14:14;;;;;;;18.67;9.73;;;;;;;-7.09;100.00;98655.19;4150864;28;20485;-70
2021/12/23 03:16:21;;;;;;;20.95;10.05;;;;;;;-7.06;100.00;98664.59;4152218;28;20073;-71
2021/12/23 03:18:21;;;;;;;16.20;9.73;;;;;;;-7.04;100.00;98667.81;4150697;28;20053;-71
2021/12/23 03:20:21;;;;;;;18.02;9.68;;;;;;;-7.03;100.00;98660.56;4152366;28;20040;-71
2021/12/23 03:22:22;;;;;;;20.20;9.73;;;;;;;-7.00;100.00;98655.50;4151344;28;20452;-71
2021/12/23 03:24:22;;;;;;;14.27;8.25;;;;;;;-6.97;100.00;98652.28;4152177;28;20156;-71
2021/12/23 03:26:24;;;;;;;19.83;10.70;;;;;;;-6.96;100.00;98645.00;4152946;28;20040;-71
2021/12/23 03:28:24;;;;;;;17.65;9.27;;;;;;;-6.91;100.00;98645.06;4151491;28;20049;-71
2021/12/23 03:30:25;;;;;;;18.05;9.32;;;;;;;-6.87;100.00;98646.97;4151905;28;20159;-71
2021/12/23 03:32:25;;;;;;;19.15;9.10;;;;;;;-6.78;100.00;98647.28;4152664;28;20041;-71
2021/12/23 03:34:26;;;;;;;20.42;10.77;;;;;;;-6.76;100.00;98636.25;4150376;28;20049;-71
2021/12/23 03:36:26;;;;;;;15.52;9.23;;;;;;;-6.74;100.00;98648.38;4152028;28;20096;-71
2021/12/23 03:38:27;;;;;;;19.33;9.65;;;;;;;-6.79;100.00;98649.16;4149436;28;20136;-71
2021/12/23 03:40:27;;;;;;;18.60;9.65;;;;;;;-6.87;100.00;98655.06;4152241;28;20456;-71
2021/12/23 03:42:28;;;;;;;15.13;8.65;;;;;;;-6.94;100.00;98659.03;4149582;28;20052;-71
2021/12/23 03:44:28;;;;;;;19.50;9.95;;;;;;;-6.97;100.00;98670.28;4152666;28;20544;-71
2021/12/23 03:46:28;;;;;;;18.20;10.32;;;;;;;-7.00;100.00;98660.06;4150916;28;20186;-72
2021/12/23 03:48:29;;;;;;;16.73;9.30;;;;;;;-7.05;100.00;98647.38;4150996;28;20041;-71
2021/12/23 03:50:29;;;;;;;17.20;8.60;;;;;;;-7.00;100.00;98646.63;4152505;28;20050;-71
2021/12/23 03:52:30;;;;;;;18.50;9.52;;;;;;;-6.97;100.00;98628.06;4151983;28;20044;-71
2021/12/23 03:54:30;;;;;;;17.55;9.35;;;;;;;-6.85;100.00;98633.25;4152004;28;20077;-71
2021/12/23 03:56:30;;;;;;;18.65;10.55;;;;;;;-6.82;100.00;98648.88;4150153;28;20257;-71
2021/12/23 03:58:31;;;;;;;17.55;10.20;;;;;;;-6.79;100.00;98634.88;4152185;28;20062;-71
2021/12/23 04:00:31;;;;;;;17.77;9.10;;;;;;;-6.83;100.00;98625.72;4151513;28;20050;-71
2021/12/23 04:02:32;;;;;;;18.35;9.40;;;;;;;-6.75;100.00;98613.66;4153077;28;20056;-71
2021/12/23 04:04:32;;;;;;;17.67;8.95;;;;;;;-6.74;100.00;98628.72;4152379;28;20460;-71
2021/12/23 04:06:32;;;;;;;18.05;8.65;;;;;;;-6.81;100.00;98619.00;4152697;28;20149;-71
2021/12/23 04:08:33;;;;;;;17.38;8.85;;;;;;;-6.77;100.00;98602.34;4155473;28;20046;-71
2021/12/23 04:10:35;;;;;;;14.30;8.10;;;;;;;-6.72;100.00;98607.75;4155419;28;20047;-71
2021/12/23 04:12:35;;;;;;;14.23;7.57;;;;;;;-6.71;100.00;98607.47;4153651;28;20051;-71
2021/12/23 04:14:36;;;;;;;21.40;10.60;;;;;;;-6.67;100.00;98597.00;4153429;28;20542;-71
2021/12/23 04:16:36;;;;;;;13.50;8.02;;;;;;;-6.67;100.00;98591.63;4154367;28;20037;-71
2021/12/23 04:18:36;;;;;;;13.85;7.68;;;;;;;-6.69;100.00;98589.22;4152909;28;20061;-71
2021/12/23 04:20:52;;;;;;;17.77;8.95;;;;;;;-6.66;100.00;98583.28;4155103;28;20045;-71
2021/12/23 04:22:54;;;;;;;16.52;8.73;;;;;;;-6.65;100.00;98579.53;4154154;28;20042;-71
2021/12/23 04:24:54;;;;;;;16.02;8.27;;;;;;;-6.59;100.00;98566.91;4154008;28;20037;-71
2021/12/23 04:26:55;;;;;;;17.08;9.07;;;;;;;-6.59;100.00;98569.59;4154328;28;20569;-72
2021/12/23 04:28:55;;;;;;;14.32;8.85;;;;;;;-6.60;100.00;98570.66;4154908;28;20125;-71
2021/12/23 04:30:56;;;;;;;14.82;8.35;;;;;;;-6.59;100.00;98566.91;4154934;28;20046;-71
2021/12/23 04:32:56;;;;;;;14.45;8.43;;;;;;;-6.60;100.00;98590.31;4153762;28;20068;-71
2021/12/23 04:34:57;;;;;;;18.05;9.93;;;;;;;-6.62;100.00;98570.09;4153838;28;20387;-71
2021/12/23 04:36:57;;;;;;;17.85;9.10;;;;;;;-6.59;100.00;98550.75;4153421;28;20045;-71
2021/12/23 04:39:00;;;;;;;18.73;8.48;;;;;;;-6.56;100.00;98552.91;4154644;28;20084;-71
2021/12/23 04:41:01;;;;;;;18.45;10.43;;;;;;;-6.56;100.00;98544.84;4155515;28;20336;-71
2021/12/23 04:43:04;;;;;;;14.65;8.13;;;;;;;-6.56;100.00;98531.38;4153687;28;20408;-70
2021/12/23 04:45:06;;;;;;;14.68;8.68;;;;;;;-6.52;100.00;98538.66;4154617;28;20475;-71
2021/12/23 04:47:06;;;;;;;15.80;8.70;;;;;;;-6.55;100.00;98522.22;4153538;28;20128;-72
2021/12/23 04:49:06;;;;;;;18.42;10.38;;;;;;;-6.55;100.00;98527.59;4155189;28;20127;-71
2021/12/23 04:51:07;;;;;;;19.02;9.23;;;;;;;-6.55;100.00;98522.22;4153783;28;20038;-71
2021/12/23 04:53:07;;;;;;;20.00;9.32;;;;;;;-6.55;100.00;98523.03;4154542;28;20058;-71
2021/12/23 04:55:08;;;;;;;16.65;8.93;;;;;;;-6.60;100.00;98525.72;4155468;28;20433;-71
2021/12/23 04:57:09;;;;;;;16.50;8.90;;;;;;;-6.61;100.00;98499.88;4153080;28;20510;-71
2021/12/23 04:59:09;;;;;;;19.33;9.52;;;;;;;-6.55;100.00;98498.00;4155096;28;20254;-71
2021/12/23 05:01:19;;;;;;;17.88;10.10;;;;;;;-6.54;100.00;98496.91;4153940;28;20375;-71
2021/12/23 05:03:21;;;;;;;17.60;9.40;;;;;;;-6.55;100.00;98509.56;4150625;28;20455;-71
2021/12/23 05:05:22;;;;;;;;;;;;;;;-6.54;100.00;98513.91;4152043;28;20053;-71
2021/12/23 05:07:22;;;;;;;19.83;11.07;;;;;;;-6.53;100.00;98503.94;4151540;28;19928;-71
2021/12/23 05:09:23;;;;;;;32.67;15.00;;;;;;;-6.54;100.00;98508.53;4151726;28;20040;-71
2021/12/23 05:11:23;;;;;;;35.47;17.02;;;;;;;-6.49;100.00;98485.38;4152698;28;20469;-70
2021/12/23 05:13:23;;;;;;;41.15;17.77;;;;;;;-6.50;100.00;98487.25;4152241;28;20049;-71
2021/12/23 05:15:24;;;;;;;24.05;11.68;;;;;;;-6.51;100.00;98491.03;4151224;28;20103;-71
2021/12/23 05:17:24;;;;;;;19.42;10.95;;;;;;;-6.53;100.00;98491.28;4149335;28;20407;-71
2021/12/23 05:19:25;;;;;;;18.85;11.30;;;;;;;-6.52;100.00;98489.41;4152283;28;20541;-71
2021/12/23 05:21:25;;;;;;;21.25;10.55;;;;;;;-6.45;100.00;98491.81;4150156;28;20029;-71
2021/12/23 05:23:25;;;;;;;21.85;11.60;;;;;;;-6.51;100.00;98499.91;4151675;28;20061;-71
2021/12/23 05:25:26;;;;;;;22.35;11.10;;;;;;;-6.53;100.00;98485.91;4151163;28;20459;-71
2021/12/23 05:27:26;;;;;;;22.35;9.98;;;;;;;-6.51;100.00;98486.44;4151333;28;20057;-71
2021/12/23 05:29:27;;;;;;;20.80;9.93;;;;;;;-6.51;100.00;98473.00;4150092;28;20218;-71
2021/12/23 05:31:27;;;;;;;23.92;10.98;;;;;;;-6.52;100.00;98467.88;4151118;28;20100;-71
2021/12/23 05:33:27;;;;;;;18.85;9.77;;;;;;;-6.51;100.00;98475.69;4151776;28;20080;-71
2021/12/23 05:35:28;;;;;;;22.52;12.18;;;;;;;-6.49;100.00;98498.81;4153211;28;20095;-71
2021/12/23 05:37:29;;;;;;;21.15;11.32;;;;;;;-6.49;100.00;98488.06;4150821;28;20048;-71
2021/12/23 05:39:29;;;;;;;20.55;10.63;;;;;;;-6.46;100.00;98464.09;4152174;28;20049;-71
2021/12/23 05:41:29;;;;;;;20.42;9.52;;;;;;;-6.45;100.00;98457.66;4151709;28;20491;-71
2021/12/23 05:43:30;;;;;;;18.67;10.32;;;;;;;-6.44;100.00;98453.88;4150211;28;20053;-71
2021/12/23 05:45:30;;;;;;;20.63;10.25;;;;;;;-6.44;100.00;98467.34;4149612;28;20394;-71
2021/12/23 05:47:30;;;;;;;20.10;10.73;;;;;;;-6.39;100.00;98469.22;4151883;28;20049;-71
2021/12/23 05:49:31;;;;;;;19.40;11.57;;;;;;;-6.37;100.00;98461.69;4149822;28;20065;-71
2021/12/23 05:51:32;;;;;;;20.27;10.82;;;;;;;-6.39;100.00;98443.09;4151936;28;20406;-71
2021/12/23 05:53:32;;;;;;;23.20;11.57;;;;;;;-6.34;100.00;98463.84;4146539;28;20080;-70
2021/12/23 05:55:32;;;;;;;18.00;10.13;;;;;;;-6.31;100.00;98471.38;4148445;28;20410;-71
2021/12/23 05:57:33;;;;;;;17.55;10.07;;;;;;;-6.31;100.00;98466.78;4149451;28;20055;-71
2021/12/23 05:59:35;;;;;;;31.70;14.27;;;;;;;-6.30;100.00;98468.41;4151895;28;20091;-71
2021/12/23 06:01:35;;;;;;;34.33;14.90;;;;;;;-6.25;100.00;98454.16;4149975;28;20069;-71
2021/12/23 06:03:35;;;;;;;24.13;12.93;;;;;;;-6.24;100.00;98439.59;4152320;28;20506;-71
2021/12/23 06:05:36;;;;;;;22.80;11.43;;;;;;;-6.23;100.00;98417.78;4152643;28;20041;-71
2021/12/23 06:07:37;;;;;;;20.65;10.27;;;;;;;-6.22;100.00;98421.28;4149511;28;20045;-71
2021/12/23 06:09:37;;;;;;;21.25;10.73;;;;;;;-6.20;100.00;98410.28;4150146;28;20133;-71
2021/12/23 06:11:37;;;;;;;19.58;10.85;;;;;;;-6.20;100.00;98424.53;4151504;28;20075;-71
2021/12/23 06:13:37;;;;;;;25.60;11.65;;;;;;;-6.08;100.00;98452.00;4152012;28;20060;-70
2021/12/23 06:15:38;;;;;;;22.83;11.27;;;;;;;-6.10;100.00;98438.00;4152864;28;20458;-70
2021/12/23 06:17:39;;;;;;;23.55;11.77;;;;;;;-6.10;100.00;98429.91;4152304;28;20399;-70
2021/12/23 06:19:39;;;;;;;19.55;10.05;;;;;;;-5.99;100.00;98434.19;4153442;28;20569;-70
2021/12/23 06:21:40;;;;;;;22.60;10.60;;;;;;;-6.04;100.00;98409.97;4151235;28;20050;-70
2021/12/23 06:23:40;;;;;;;20.42;10.57;;;;;;;-6.05;100.00;98405.66;4153373;28;20044;-71
2021/12/23 06:25:41;;;;;;;22.23;10.65;;;;;;;-6.05;100.00;98418.31;4152813;28;20056;-71
2021/12/23 06:27:42;;;;;;;21.33;10.75;;;;;;;-6.11;100.00;98400.56;4150088;28;20444;-71
2021/12/23 06:29:43;;;;;;;20.00;10.32;;;;;;;-6.11;100.00;98389.78;4148535;28;20041;-71
2021/12/23 06:31:43;;;;;;;22.50;10.27;;;;;;;-6.10;100.00;98402.97;4152125;28;20063;-71
2021/12/23 06:33:43;;;;;;;25.92;12.45;;;;;;;-6.09;100.00;98398.41;4151926;28;20068;-71
2021/12/23 06:35:44;;;;;;;21.80;11.27;;;;;;;-6.10;100.00;98388.72;4151276;28;20050;-71
2021/12/23 06:37:44;;;;;;;26.58;11.82;;;;;;;-6.09;100.00;98395.72;4152206;28;20034;-71
2021/12/23 06:39:46;;;;;;;20.35;10.75;;;;;;;-6.08;100.00;98406.19;4152136;28;20548;-71
2021/12/23 06:41:47;;;;;;;20.08;10.63;;;;;;;-6.07;100.00;98412.41;4153005;28;20060;-71
2021/12/23 06:43:47;;;;;;;21.23;10.73;;;;;;;-6.05;100.00;98408.34;4152930;28;20247;-71
2021/12/23 06:45:48;;;;;;;18.35;10.35;;;;;;;-6.04;100.00;98409.16;4153443;28;20044;-71
2021/12/23 06:47:48;;;;;;;18.77;9.88;;;;;;;-6.04;100.00;98398.38;4151241;28;20434;-70
2021/12/23 06:49:48;;;;;;;21.67;10.80;;;;;;;-6.02;100.00;98394.34;4152941;28;20101;-71
2021/12/23 06:51:49;;;;;;;20.85;11.55;;;;;;;-6.00;100.00;98404.84;4152148;28;20100;-71
2021/12/23 06:53:49;;;;;;;26.23;12.70;;;;;;;-5.96;100.00;98414.81;4153025;28;20144;-71
2021/12/23 06:55:51;;;;;;;20.80;11.82;;;;;;;-5.96;100.00;98416.69;4152979;28;20045;-71
2021/12/23 06:57:56;;;;;;;35.25;19.35;;;;;;;-5.96;100.00;98403.22;4152245;28;20409;-71
2021/12/23 06:59:56;;;;;;;43.33;19.17;;;;;;;-5.93;100.00;98404.56;4152277;28;20069;-71
2021/12/23 07:01:56;;;;;;;46.25;20.63;;;;;;;-5.91;100.00;98422.06;4153788;28;20526;-71
2021/12/23 07:04:17;;;;;;;41.00;18.48;;;;;;;-5.93;100.00;98431.50;4152894;28;20081;-70
2021/12/23 07:06:22;;;;;;;48.35;21.85;;;;;;;-5.90;100.00;98431.72;4152507;28;20547;-70
2021/12/23 07:08:28;;;;;;;33.13;16.20;;;;;;;-5.84;100.00;98436.03;4152289;28;20076;-70
2021/12/23 07:10:29;;;;;;;33.38;17.60;;;;;;;-5.85;100.00;98429.03;4152358;28;20092;-70
2021/12/23 07:12:30;;;;;;;36.90;17.35;;;;;;;-5.84;100.00;98436.03;4152036;28;20145;-70
2021/12/23 07:14:30;;;;;;;31.27;15.20;;;;;;;-5.85;100.00;98429.03;4152199;28;20076;-70
2021/12/23 07:16:31;;;;;;;25.27;13.98;;;;;;;-5.86;100.00;98419.34;4152042;28;20049;-70
2021/12/23 07:18:32;;;;;;;29.13;13.45;;;;;;;-5.85;100.00;98420.16;4152199;28;20037;-70
2021/12/23 07:20:32;;;;;;;29.30;14.05;;;;;;;-5.82;100.00;98433.06;4152102;28;20576;-70
2021/12/23 07:22:33;;;;;;;22.98;12.85;;;;;;;-5.81;100.00;98423.91;4152013;28;20049;-70
2021/12/23 07:24:34;;;;;;;34.33;17.15;;;;;;;-5.84;100.00;98429.84;4152768;28;20403;-71
2021/12/23 07:26:34;;;;;;;27.30;14.45;;;;;;;-5.80;100.00;98430.91;4151650;28;20063;-71
2021/12/23 07:28:34;;;;;;;29.88;15.02;;;;;;;-5.80;100.00;98407.44;4151851;28;20049;-71
2021/12/23 07:30:35;;;;;;;28.40;14.45;;;;;;;-5.79;100.00;98419.03;4152042;28;20041;-71
2021/12/23 07:32:35;;;;;;;23.15;12.85;;;;;;;-5.78;100.00;98432.25;4152502;28;20463;-71
2021/12/23 07:34:39;;;;;;;28.10;12.93;;;;;;;-5.76;100.00;98431.97;4153072;28;20029;-71
2021/12/23 07:36:41;;;;;;;22.70;13.20;;;;;;;-5.79;100.00;98405.56;4150347;28;20045;-71
2021/12/23 07:38:41;;;;;;;27.92;13.52;;;;;;;-5.75;100.00;98409.34;4151691;28;20136;-71
2021/12/23 07:40:41;;;;;;;25.42;13.13;;;;;;;-5.73;100.00;98401.78;4151965;28;20120;-71
2021/12/23 07:42:52;;;;;;;24.35;13.60;;;;;;;-5.71;100.00;98380.75;4152520;28;20132;-71
2021/12/23 07:44:54;;;;;;;28.15;14.02;;;;;;;-5.65;100.00;98382.34;4152163;28;20575;-71
2021/12/23 07:46:54;;;;;;;27.08;13.23;;;;;;;-5.66;100.00;98386.94;4151351;28;20050;-71
2021/12/23 07:48:56;;;;;;;19.35;10.90;;;;;;;-5.63;100.00;98382.88;4152783;28;20073;-71
2021/12/23 07:50:57;;;;;;;22.95;11.07;;;;;;;-5.62;100.00;98384.53;4151965;28;20798;-71
2021/12/23 07:52:57;;;;;;;29.60;12.98;;;;;;;-5.61;100.00;98383.44;4152368;28;20136;-71
2021/12/23 07:54:58;;;;;;;22.75;12.07;;;;;;;-5.60;100.00;98381.53;4152562;28;20087;-71
2021/12/23 07:56:58;;;;;;;25.02;13.23;;;;;;;-5.62;100.00;98373.75;4149757;28;20262;-71
2021/12/23 07:58:58;;;;;;;22.40;11.55;;;;;;;-5.59;100.00;98372.38;4151373;28;20041;-71
2021/12/23 08:00:59;;;;;;;21.52;12.05;;;;;;;-5.55;100.00;98376.13;4152599;28;20140;-71
2021/12/23 08:02:59;;;;;;;22.48;12.05;;;;;;;-5.51;100.00;98369.91;4150595;28;20501;-71
2021/12/23 08:05:00;;;;;;;20.10;11.25;;;;;;;-5.47;100.00;98357.47;4152396;28;20259;-71
2021/12/23 08:07:03;;;;;;;25.40;12.50;;;;;;;-5.44;100.00;98369.63;4150051;28;20053;-71
2021/12/23 08:09:03;;;;;;;21.50;12.40;;;;;;;-5.40;100.00;98371.47;4152498;28;20085;-71
2021/12/23 08:11:06;;;;;;;27.42;13.13;;;;;;;-5.38;100.00;98365.78;4149836;28;20048;-71
2021/12/23 08:13:07;;;;;;;22.88;12.65;;;;;;;-5.38;100.00;98361.22;4152384;28;20077;-70
2021/12/23 08:15:08;;;;;;;24.02;11.75;;;;;;;-5.33;100.00;98373.06;4150944;28;20085;-70
2021/12/23 08:17:08;;;;;;;22.25;11.10;;;;;;;-5.31;100.00;98365.50;4150280;28;20609;-71
2021/12/23 08:19:11;;;;;;;22.02;12.40;;;;;;;-5.33;100.00;98360.38;4151977;28;20041;-70
2021/12/23 08:21:12;;;;;;;23.85;10.98;;;;;;;-5.28;100.00;98354.16;4151850;28;20045;-71
2021/12/23 08:23:12;;;;;;;20.85;11.13;;;;;;;-5.28;100.00;98343.38;4152712;28;20513;-71
2021/12/23 08:25:13;;;;;;;21.25;11.13;;;;;;;-5.26;100.00;98349.28;4151910;28;20415;-71
2021/12/23 08:27:14;;;;;;;21.80;10.88;;;;;;;-5.26;100.00;98358.19;4150964;28;20388;-71
2021/12/23 08:29:17;;;;;;;20.50;11.05;;;;;;;-5.23;100.00;98341.44;4151701;28;20393;-71
2021/12/23 08:31:18;;;;;;;25.13;12.50;;;;;;;-5.16;100.00;98344.66;4151658;28;20045;-71
2021/12/23 08:33:18;;;;;;;22.40;11.65;;;;;;;-5.12;100.00;98347.59;4151596;28;20073;-71
2021/12/23 08:35:19;;;;;;;21.42;11.07;;;;;;;-5.09;100.00;98355.94;4152427;28;20046;-71
2021/12/23 08:37:20;;;;;;;21.35;10.75;;;;;;;-5.09;100.00;98336.25;4149841;28;20045;-71
2021/12/23 08:39:20;;;;;;;20.42;10.55;;;;;;;-5.10;100.00;98327.34;4151214;28;20053;-71
2021/12/23 08:41:21;;;;;;;27.27;15.88;;;;;;;-5.07;100.00;98319.78;4150392;28;20042;-70
2021/12/23 08:43:21;;;;;;;29.00;14.20;;;;;;;-4.97;100.00;98319.69;4152692;28;20160;-71
2021/12/23 08:45:22;;;;;;;25.10;13.60;;;;;;;-4.88;100.00;98307.22;4149931;28;20099;-71
2021/12/23 08:47:22;;;;;;;34.58;15.35;;;;;;;-4.81;100.00;98303.09;4151500;28;20794;-71
2021/12/23 08:49:23;;;;;;;40.22;16.52;;;;;;;-4.69;100.00;98304.66;4152243;28;20481;-71
2021/12/23 08:51:23;;;;;;;42.80;18.20;;;;;;;-4.66;99.60;98298.69;4150418;28;20136;-71
2021/12/23 08:53:24;;;;;;;47.13;19.33;;;;;;;-4.67;99.13;98295.19;4154580;28;20041;-71
2021/12/23 08:55:27;;;;;;;38.03;16.42;;;;;;;-4.67;99.16;98299.78;4153379;28;20054;-71
2021/12/23 08:57:27;;;;;;;41.78;17.45;;;;;;;-4.66;100.00;98304.06;4154711;28;21111;-71
2021/12/23 08:59:28;;;;;;;32.65;15.68;;;;;;;-4.68;100.00;98304.38;4153895;28;20057;-70
2021/12/23 09:01:28;;;;;;;31.13;13.82;;;;;;;-4.68;100.00;98298.16;4154767;28;20033;-70
2021/12/23 09:03:31;;;;;;;31.40;13.68;;;;;;;-4.71;100.00;98290.66;4155382;28;20255;-70
2021/12/23 09:05:35;;;;;;;35.42;15.55;;;;;;;-4.73;100.00;98295.50;4154214;28;20057;-71
2021/12/23 09:07:35;;;;;;;23.48;12.63;;;;;;;-4.72;100.00;98286.31;4153846;28;20045;-71
2021/12/23 09:09:36;;;;;;;21.50;12.77;;;;;;;-4.71;100.00;98282.53;4152727;28;20045;-71
2021/12/23 09:11:37;;;;;;;30.85;17.90;;;;;;;-4.66;100.00;98283.28;4154442;28;20505;-71
2021/12/23 09:13:37;;;;;;;39.80;20.05;;;;;;;-4.61;100.00;98280.56;4154304;28;20056;-71
2021/12/23 09:15:37;;;;;;;25.98;14.48;;;;;;;-4.59;100.00;98274.88;4153333;28;20053;-71
2021/12/23 09:17:38;;;;;;;27.77;14.27;;;;;;;-4.56;100.00;98277.78;4153010;28;20450;-71